地図

経路データ

SID SEASON NUMBER BASIN SUBBASIN NAME ISO_TIME NATURE LAT LON WMO_WIND WMO_PRES WMO_AGENCY TRACK_TYPE DIST2LAND LANDFALL IFLAG USA_AGENCY USA_ATCF_ID USA_LAT USA_LON USA_RECORD USA_STATUS USA_WIND USA_PRES USA_SSHS USA_R34_NE USA_R34_SE USA_R34_SW USA_R34_NW USA_R50_NE USA_R50_SE USA_R50_SW USA_R50_NW USA_R64_NE USA_R64_SE USA_R64_SW USA_R64_NW USA_POCI USA_ROCI USA_RMW USA_EYE TOKYO_LAT TOKYO_LON TOKYO_GRADE TOKYO_WIND TOKYO_PRES TOKYO_R50_DIR TOKYO_R50_LONG TOKYO_R50_SHORT TOKYO_R30_DIR TOKYO_R30_LONG TOKYO_R30_SHORT TOKYO_LAND CMA_LAT CMA_LON CMA_CAT CMA_WIND CMA_PRES HKO_LAT HKO_LON HKO_CAT HKO_WIND HKO_PRES NEWDELHI_LAT NEWDELHI_LON NEWDELHI_GRADE NEWDELHI_WIND NEWDELHI_PRES NEWDELHI_CI NEWDELHI_DP NEWDELHI_POCI REUNION_LAT REUNION_LON REUNION_TYPE REUNION_WIND REUNION_PRES REUNION_TNUM REUNION_CI REUNION_RMW REUNION_R34_NE REUNION_R34_SE REUNION_R34_SW REUNION_R34_NW REUNION_R50_NE REUNION_R50_SE REUNION_R50_SW REUNION_R50_NW REUNION_R64_NE REUNION_R64_SE REUNION_R64_SW REUNION_R64_NW BOM_LAT BOM_LON BOM_TYPE BOM_WIND BOM_PRES BOM_TNUM BOM_CI BOM_RMW BOM_R34_NE BOM_R34_SE BOM_R34_SW BOM_R34_NW BOM_R50_NE BOM_R50_SE BOM_R50_SW BOM_R50_NW BOM_R64_NE BOM_R64_SE BOM_R64_SW BOM_R64_NW BOM_ROCI BOM_POCI BOM_EYE BOM_POS_METHOD BOM_PRES_METHOD NADI_LAT NADI_LON NADI_CAT NADI_WIND NADI_PRES WELLINGTON_LAT WELLINGTON_LON WELLINGTON_WIND WELLINGTON_PRES DS824_LAT DS824_LON DS824_STAGE DS824_WIND DS824_PRES TD9636_LAT TD9636_LON TD9636_STAGE TD9636_WIND TD9636_PRES TD9635_LAT TD9635_LON TD9635_WIND TD9635_PRES TD9635_ROCI NEUMANN_LAT NEUMANN_LON NEUMANN_CLASS NEUMANN_WIND NEUMANN_PRES MLC_LAT MLC_LON MLC_CLASS MLC_WIND MLC_PRES USA_GUST BOM_GUST BOM_GUST_PER REUNION_GUST REUNION_GUST_PER USA_SEAHGT USA_SEARAD_NE USA_SEARAD_SE USA_SEARAD_SW USA_SEARAD_NW STORM_SPEED STORM_DIR
1957218N18234 1957 40 EP MM NOT_NAMED 1957-08-06 00:00:00 TS 18.4000 -125.700 50 hurdat_epa main 1507 1507 O________OO___ hurdat_epa EP021957 18.4000 -125.700 TS 50 0 18.4000 -125.700 TC 50 18.4000 -125.700 4 15 269
1957218N18234 1957 40 EP MM NOT_NAMED 1957-08-06 03:00:00 TS 18.3918 -126.503 main 1567 1567 P________PP___ EP021957 18.3829 -126.488 TS 47 0 18.3829 -126.488 TC 47 18.4273 -126.566 4 15 270
1957218N18234 1957 40 EP MM NOT_NAMED 1957-08-06 06:00:00 TS 18.4124 -127.321 45 hurdat_epa main 1629 1629 O________OP___ hurdat_epa EP021957 18.4000 -127.300 TS 45 0 18.4000 -127.300 TC 45 18.4619 -127.405 4 16 273
1957218N18234 1957 40 EP MM NOT_NAMED 1957-08-06 09:00:00 TS 18.4851 -128.148 main 1686 1686 P________PP___ EP021957 18.4776 -128.137 TS 45 0 18.4776 -128.137 TC 45 18.5154 -128.192 4 15 277
1957218N18234 1957 40 EP MM NOT_NAMED 1957-08-06 12:00:00 TS 18.6000 -128.900 45 hurdat_epa main 1744 1744 O________OO___ hurdat_epa EP021957 18.6000 -128.900 TS 45 0 18.6000 -128.900 TC 45 18.6000 -128.900 4 13 281
1957218N18234 1957 40 EP MM NOT_NAMED 1957-08-06 15:00:00 TS 18.7382 -129.493 main 1788 1788 P________PP___ EP021957 18.7420 -129.488 TS 45 0 18.7420 -129.488 TC 45 18.7234 -129.514 4 11 286
1957218N18234 1957 40 EP MM NOT_NAMED 1957-08-06 18:00:00 TS 18.8950 -130.012 45 hurdat_epa main 1817 1817 O________OP___ hurdat_epa EP021957 18.9000 -130.000 TS 45 0 18.9000 -130.000 TC 45 18.8751 -130.060 4 10 288
1957218N18234 1957 40 EP MM NOT_NAMED 1957-08-06 21:00:00 TS 19.0537 -130.549 main 1847 1847 P________PP___ EP021957 19.0573 -130.543 TS 45 0 19.0573 -130.543 TC 45 19.0393 -130.576 4 11 287
1957218N18234 1957 40 EP MM NOT_NAMED 1957-08-07 00:00:00 TS 19.2000 -131.100 45 hurdat_epa main 1893 1893 O________OO___ hurdat_epa EP021957 19.2000 -131.100 TS 45 0 19.2000 -131.100 TC 45 19.2000 -131.100 4 11 283
1957218N18234 1957 40 EP MM NOT_NAMED 1957-08-07 03:00:00 TS 19.2989 -131.688 main 1940 1940 P________PP___ EP021957 19.2999 -131.693 TS 45 0 19.2999 -131.693 TC 45 19.2949 -131.671 4 11 280
1957218N18234 1957 40 EP MM NOT_NAMED 1957-08-07 06:00:00 TS 19.3978 -132.291 45 hurdat_epa main 1988 1988 O________OP___ hurdat_epa EP021957 19.4000 -132.300 TS 45 0 19.4000 -132.300 TC 45 19.3889 -132.257 4 11 281
1957218N18234 1957 40 EP MM NOT_NAMED 1957-08-07 09:00:00 TS 19.5124 -132.881 main 2037 2037 P________PP___ EP021957 19.5121 -132.885 TS 45 0 19.5121 -132.885 TC 45 19.5135 -132.865 4 12 285
1957218N18234 1957 40 EP MM NOT_NAMED 1957-08-07 12:00:00 TS 19.7000 -133.500 45 hurdat_epa main 2080 2078 O________OO___ hurdat_epa EP021957 19.7000 -133.500 TS 45 0 19.7000 -133.500 TC 45 19.7000 -133.500 4 13 292
1957218N18234 1957 40 EP MM NOT_NAMED 1957-08-07 15:00:00 TS 20.0162 -134.184 main 2097 2081 P________PP___ EP021957 20.0199 -134.185 TS 45 0 20.0199 -134.185 TC 45 20.0015 -134.178 4 15 298
1957218N18234 1957 40 EP MM NOT_NAMED 1957-08-07 18:00:00 TS 20.3925 -134.897 45 hurdat_epa main 2081 2008 O________OP___ hurdat_epa EP021957 20.4000 -134.900 TS 45 0 20.4000 -134.900 TC 45 20.3625 -134.883 4 15 299
1957218N18234 1957 40 EP MM NOT_NAMED 1957-08-07 21:00:00 TS 20.7603 -135.605 main 2008 1936 P________PP___ EP021957 20.7648 -135.608 TS 52 0 20.7648 -135.608 TC 52 20.7421 -135.597 4 15 298
1957218N18234 1957 40 EP MM NOT_NAMED 1957-08-08 00:00:00 TS 21.1000 -136.300 60 994 hurdat_epa main 1936 1875 O________OO___ hurdat_epa EP021957 21.1000 -136.300 TS 60 994 0 21.1000 -136.300 TC 60 994 21.1000 -136.300 4 14 296
1957218N18234 1957 40 EP MM NOT_NAMED 1957-08-08 03:00:00 TS 21.3698 -136.963 main 1865 1804 P________PP___ EP021957 21.3647 -136.958 TS 55 0 21.3647 -136.958 TC 55 21.3903 -136.981 4 13 293
1957218N18234 1957 40 EP MM NOT_NAMED 1957-08-08 06:00:00 TS 21.6103 -137.609 50 hurdat_epa main 1804 1745 O________OP___ hurdat_epa EP021957 21.6000 -137.600 TS 50 0 21.6000 -137.600 TC 50 21.6517 -137.646 4 13 292
1957218N18234 1957 40 EP MM NOT_NAMED 1957-08-08 09:00:00 TS 21.8634 -138.270 main 1735 1677 P________PP___ EP021957 21.8574 -138.265 TS 50 0 21.8574 -138.265 TC 50 21.8873 -138.287 4 13 292
1957218N18234 1957 40 EP MM NOT_NAMED 1957-08-08 12:00:00 TS 22.1000 -138.900 50 hurdat_epa main 1677 1628 O________OO___ hurdat_epa EP021957 22.1000 -138.900 TS 50 0 22.1000 -138.900 TC 50 22.1000 -138.900 4 12 292
1957218N18234 1957 40 EP MM NOT_NAMED 1957-08-08 15:00:00 TS 22.2983 -139.455 main 1618 1571 P________PP___ EP021957 22.3147 -139.465 TS 50 0 22.3147 -139.465 TC 50 22.2326 -139.414 4 11 290
1957218N18234 1957 40 EP MM NOT_NAMED 1957-08-08 18:00:00 TS 22.4711 -139.982 50 hurdat_epa main 1571 1522 O________OP___ hurdat_epa EP021957 22.5000 -140.000 TS 50 0 22.5000 -140.000 TC 50 22.3555 -139.910 4 10 287
1957218N18234 1957 40 EP CP NOT_NAMED 1957-08-08 21:00:00 TS 22.5944 -140.483 main 1522 1466 P________PP___ EP021957 22.6116 -140.491 TS 50 0 22.6116 -140.491 TC 50 22.5258 -140.450 4 11 288
1957218N18234 1957 40 EP CP NOT_NAMED 1957-08-09 00:00:00 TS 22.8000 -141.100 50 hurdat_epa main 1466 1394 O________OO___ hurdat_epa EP021957 22.8000 -141.100 TS 50 0 22.8000 -141.100 TC 50 22.8000 -141.100 4 15 293
1957218N18234 1957 40 EP CP NOT_NAMED 1957-08-09 03:00:00 TS 23.1827 -141.984 main 1387 1312 P________PP___ EP021957 23.1752 -141.983 TS 50 0 23.1752 -141.983 TC 50 23.2127 -141.988 4 20 297
1957218N18234 1957 40 EP CP NOT_NAMED 1957-08-09 06:00:00 TS 23.7064 -142.998 50 hurdat_epa main 1306 1235 O________OP___ hurdat_epa EP021957 23.7000 -143.000 TS 50 0 23.7000 -143.000 TC 50 23.7319 -142.988 4 22 301
1957218N18234 1957 40 EP CP NOT_NAMED 1957-08-09 09:00:00 TS 24.3111 -144.028 main 1235 1180 P________PP___ EP021957 24.3052 -144.030 TS 50 0 24.3052 -144.030 TC 50 24.3346 -144.020 4 22 305
1957218N18234 1957 40 EP CP NOT_NAMED 1957-08-09 12:00:00 TS 25.0000 -145.000 50 hurdat_epa main 1180 1151 O________OO___ hurdat_epa EP021957 25.0000 -145.000 TS 50 0 25.0000 -145.000 TC 50 25.0000 -145.000 4 21 312
1957218N18234 1957 40 EP CP NOT_NAMED 1957-08-09 15:00:00 TS 25.7316 -145.795 main 1151 1140 P________PP___ EP021957 25.7340 -145.789 TS 47 0 25.7340 -145.789 TC 47 25.7220 -145.819 4 20 318
1957218N18234 1957 40 EP CP NOT_NAMED 1957-08-09 18:00:00 TS 26.4993 -146.515 45 hurdat_epa main 1146 1138 O________OP___ hurdat_epa EP021957 26.5000 -146.500 TS 45 0 26.5000 -146.500 TC 45 26.4963 -146.576 4 20 320
1957218N18234 1957 40 EP CP NOT_NAMED 1957-08-09 21:00:00 TS 27.2723 -147.265 main 1142 1140 P________PP___ EP021957 27.2722 -147.258 TS 45 0 27.2722 -147.258 TC 45 27.2725 -147.294 4 20 319
1957218N18234 1957 40 EP CP NOT_NAMED 1957-08-10 00:00:00 TS 28.0000 -148.000 45 1004 hurdat_epa main 1140 1136 O________OO___ hurdat_epa EP021957 28.0000 -148.000 TS 45 1004 0 28.0000 -148.000 TC 45 1004 28.0000 -148.000 4 19 317
1957218N18234 1957 40 EP CP NOT_NAMED 1957-08-10 03:00:00 TS 28.6423 -148.714 main 1140 1140 P________PP___ EP021957 28.6369 -148.701 TS 50 0 28.6369 -148.701 TC 50 28.6638 -148.765 4 17 314
1957218N18234 1957 40 EP CP NOT_NAMED 1957-08-10 06:00:00 TS 29.2129 -149.423 55 hurdat_epa main 1149 1143 O________OP___ hurdat_epa EP021957 29.2000 -149.400 TS 55 0 29.2000 -149.400 TC 55 29.2646 -149.517 4 17 311
1957218N18234 1957 40 EP CP NOT_NAMED 1957-08-10 09:00:00 TS 29.7647 -150.185 main 1161 1156 P________PP___ EP021957 29.7601 -150.172 TS 57 0 29.7601 -150.172 TC 57 29.7829 -150.236 4 16 308
1957218N18234 1957 40 EP CP NOT_NAMED 1957-08-10 12:00:00 TS 30.2000 -150.900 60 hurdat_epa main 1167 1163 O________OO___ hurdat_epa EP021957 30.2000 -150.900 TS 60 0 30.2000 -150.900 TC 60 30.2000 -150.900 4 13 301
1957218N18234 1957 40 EP CP NOT_NAMED 1957-08-10 15:00:00 TS 30.4512 -151.489 main 1173 1162 P________PP___ EP021957 30.4444 -151.489 TS 62 0 30.4444 -151.489 TC 62 30.4783 -151.492 4 10 293
1957218N18234 1957 40 EP CP NOT_NAMED 1957-08-10 18:00:00 TS 30.6130 -152.005 65 hurdat_epa main 1164 1154 O________OP___ hurdat_epa EP021957 30.6000 -152.000 HU 65 1 30.6000 -152.000 TC 65 30.6650 -152.024 4 9 291
1957218N18234 1957 40 EP CP NOT_NAMED 1957-08-10 21:00:00 TS 30.7916 -152.510 main 1159 1151 P________PP___ EP021957 30.7847 -152.508 HU 70 1 30.7847 -152.508 TC 70 30.8193 -152.519 4 9 294
1957218N18234 1957 40 EP CP NOT_NAMED 1957-08-11 00:00:00 TS 31.0000 -153.000 75 hurdat_epa main 1157 1153 O________OO___ hurdat_epa EP021957 31.0000 -153.000 HU 75 1 31.0000 -153.000 TC 75 31.0000 -153.000 4 10 300
1957218N18234 1957 40 EP CP NOT_NAMED 1957-08-11 03:00:00 TS 31.2829 -153.507 main 1168 1164 P________PP___ EP021957 31.2773 -153.500 HU 70 1 31.2773 -153.500 TC 70 31.3053 -153.535 4 11 305
1957218N18234 1957 40 EP CP NOT_NAMED 1957-08-11 06:00:00 TS 31.6085 -154.012 65 hurdat_epa main 1181 1178 O________OP___ hurdat_epa EP021957 31.6000 -154.000 HU 65 1 31.6000 -154.000 TC 65 31.6426 -154.058 4 11 308
1957218N18234 1957 40 EP CP NOT_NAMED 1957-08-11 09:00:00 TS 31.9628 -154.534 main 1202 1198 P________PP___ EP021957 31.9576 -154.530 HU 65 1 31.9576 -154.530 TC 65 31.9836 -154.553 4 11 310
1957218N18234 1957 40 EP CP NOT_NAMED 1957-08-11 12:00:00 TS 32.3000 -155.000 65 hurdat_epa main 1215 1211 O________OO___ hurdat_epa EP021957 32.3000 -155.000 HU 65 1 32.3000 -155.000 TC 65 32.3000 -155.000 4 9 313
1957218N18234 1957 40 EP CP NOT_NAMED 1957-08-11 15:00:00 TS 32.5677 -155.315 main 1236 1233 P________PP___ EP021957 32.5721 -155.323 HU 65 1 32.5721 -155.323 TC 65 32.5500 -155.282 4 7 315
1957218N18234 1957 40 EP CP NOT_NAMED 1957-08-11 18:00:00 TS 32.7948 -155.586 65 hurdat_epa main 1248 1248 O________OP___ hurdat_epa EP021957 32.8000 -155.600 HU 65 1 32.8000 -155.600 TC 65 32.7742 -155.528 4 6 313
1957218N18234 1957 40 EP CP NOT_NAMED 1957-08-11 21:00:00 TS 32.9964 -155.856 main 1262 1262 P________PP___ EP021957 32.9989 -155.861 HU 62 0 32.9989 -155.861 TC 62 32.9865 -155.835 4 7 304
1957218N18234 1957 40 EP CP NOT_NAMED 1957-08-12 00:00:00 TS 33.2000 -156.300 60 hurdat_epa main 1273 1271 O________OO___ hurdat_epa EP021957 33.2000 -156.300 TS 60 0 33.2000 -156.300 TC 60 33.2000 -156.300 4 11 293
1957218N18234 1957 40 EP CP NOT_NAMED 1957-08-12 03:00:00 TS 33.4480 -157.106 main 1280 1280 P________PP___ EP021957 33.4506 -157.110 TS 60 0 33.4506 -157.110 TC 60 33.4377 -157.091 4 16 288
1957218N18234 1957 40 EP CP NOT_NAMED 1957-08-12 06:00:00 TS 33.6943 -158.088 60 hurdat_epa main 1300 1298 O________OP___ hurdat_epa EP021957 33.7000 -158.100 TS 60 0 33.7000 -158.100 TC 60 33.6716 -158.042 4 17 286
1957218N18234 1957 40 EP CP NOT_NAMED 1957-08-12 09:00:00 TS 33.9051 -159.080 main 1317 1317 P________PP___ EP021957 33.9079 -159.088 TS 60 0 33.9079 -159.088 TC 60 33.8939 -159.048 4 16 284
1957218N18234 1957 40 EP CP NOT_NAMED 1957-08-12 12:00:00 TS 34.1000 -160.000 60 hurdat_epa main 1340 1340 O________OO___ hurdat_epa EP021957 34.1000 -160.000 TS 60 0 34.1000 -160.000 TC 60 34.1000 -160.000 4 14 287
1957218N18234 1957 40 EP CP NOT_NAMED 1957-08-12 15:00:00 TS 34.3039 -160.703 main 1365 1365 P________PP___ EP021957 34.3062 -160.688 TS 55 0 34.3062 -160.688 TC 55 34.2946 -160.765 4 12 290
1957218N18234 1957 40 EP CP NOT_NAMED 1957-08-12 18:00:00 TS 34.4953 -161.331 50 hurdat_epa main 1393 1393 O________OP___ hurdat_epa EP021957 34.5000 -161.300 TS 50 0 34.5000 -161.300 TC 50 34.4766 -161.457 4 11 288
1957218N18234 1957 40 EP CP NOT_NAMED 1957-08-12 21:00:00 TS 34.6550 -162.025 main 1424 1424 P________PP___ EP021957 34.6575 -162.008 TS 52 0 34.6575 -162.008 TC 52 34.6453 -162.095 4 12 285
1957218N18234 1957 40 EP CP NOT_NAMED 1957-08-13 00:00:00 TS 34.8000 -162.700 55 987 hurdat_epa main 1447 1447 O________OO___ hurdat_epa EP021957 34.8000 -162.700 TS 55 987 0 34.8000 -162.700 TC 55 987 34.8000 -162.700 4 11 286
1957218N18234 1957 40 EP CP NOT_NAMED 1957-08-13 03:00:00 TS 34.9542 -163.323 main 1481 1481 P________PP___ EP021957 34.9571 -163.323 TS 57 0 34.9571 -163.323 TC 57 34.9425 -163.325 4 10 287
1957218N18234 1957 40 EP CP NOT_NAMED 1957-08-13 06:00:00 TS 35.0943 -163.904 60 hurdat_epa main 1507 1507 O________OP___ hurdat_epa EP021957 35.1000 -163.900 TS 60 0 35.1000 -163.900 TC 60 35.0714 -163.918 4 10 285
1957218N18234 1957 40 EP CP NOT_NAMED 1957-08-13 09:00:00 TS 35.2038 -164.474 main 1534 1534 P________PP___ EP021957 35.2073 -164.473 TS 67 1 35.2073 -164.473 TC 67 35.1897 -164.478 4 9 283
1957218N18234 1957 40 EP CP NOT_NAMED 1957-08-13 12:00:00 TS 35.3000 -165.000 75 hurdat_epa main 1560 1560 O________OO___ hurdat_epa EP021957 35.3000 -165.000 HU 75 1 35.3000 -165.000 TC 75 35.3000 -165.000 4 8 283
1957218N18234 1957 40 EP CP NOT_NAMED 1957-08-13 15:00:00 TS 35.3924 -165.459 main 1587 1587 P________PP___ EP021957 35.3997 -165.465 HU 82 1 35.3997 -165.465 TC 82 35.3636 -165.433 4 7 284
1957218N18234 1957 40 EP CP NOT_NAMED 1957-08-13 18:00:00 TS 35.4856 -165.888 90 hurdat_epa main 1611 1611 O________OP___ hurdat_epa EP021957 35.5000 -165.900 HU 90 2 35.5000 -165.900 TC 90 35.4281 -165.838 4 7 284
1957218N18234 1957 40 EP CP NOT_NAMED 1957-08-13 21:00:00 TS 35.5609 -166.288 main 1636 1636 P________PP___ EP021957 35.5690 -166.291 HU 90 2 35.5690 -166.291 TC 90 35.5287 -166.275 4 8 286
1957218N18234 1957 40 EP CP NOT_NAMED 1957-08-14 00:00:00 TS 35.7000 -166.800 90 hurdat_epa main 1666 1666 O________OO___ hurdat_epa EP021957 35.7000 -166.800 HU 90 2 35.7000 -166.800 TC 90 35.7000 -166.800 4 11 291
1957218N18234 1957 40 EP CP NOT_NAMED 1957-08-14 03:00:00 TS 35.9629 -167.603 main 1729 1729 P________PP___ EP021957 35.9558 -167.605 HU 85 2 35.9558 -167.605 TC 85 35.9911 -167.599 4 15 294
1957218N18234 1957 40 EP CP NOT_NAMED 1957-08-14 06:00:00 TS 36.3094 -168.496 80 hurdat_epa main 1797 1797 O________OP___ hurdat_epa EP021957 36.3000 -168.500 HU 80 1 36.3000 -168.500 TC 80 36.3471 -168.481 4 16 298
1957218N18234 1957 40 EP CP NOT_NAMED 1957-08-14 09:00:00 TS 36.7059 -169.330 main 1800 1757 P________PP___ EP021957 36.7002 -169.332 HU 75 1 36.7002 -169.332 TC 75 36.7287 -169.324 4 14 303
1957218N18234 1957 40 EP CP NOT_NAMED 1957-08-14 12:00:00 TS 37.1000 -170.000 70 hurdat_epa main 1757 1726 O________OO___ hurdat_epa EP021957 37.1000 -170.000 HU 70 1 37.1000 -170.000 TC 70 37.1000 -170.000 4 11 309
1957218N18234 1957 40 EP CP NOT_NAMED 1957-08-14 15:00:00 TS 37.4136 -170.408 main 1726 1694 P________PP___ EP021957 37.4143 -170.413 HU 67 1 37.4143 -170.413 TC 67 37.4110 -170.385 4 8 322
1957218N18234 1957 40 EP CP NOT_NAMED 1957-08-14 18:00:00 TS 37.7022 -170.596 65 hurdat_epa main 1694 1661 O________OP___ hurdat_epa EP021957 37.7000 -170.600 HU 65 1 37.7000 -170.600 TC 65 37.7111 -170.581 4 6 342
1957218N18234 1957 40 EP CP NOT_NAMED 1957-08-14 21:00:00 TS 38.0011 -170.656 main 1661 1627 P________PP___ EP021957 37.9999 -170.660 HU 62 0 37.9999 -170.660 TC 62 38.0059 -170.637 4 6 0
1957218N18234 1957 40 EP CP NOT_NAMED 1957-08-15 00:00:00 TS 38.3000 -170.600 60 hurdat_epa main 1627 1593 O________OO___ hurdat_epa EP021957 38.3000 -170.600 TS 60 0 38.3000 -170.600 TC 60 38.3000 -170.600 4 6 9
1957218N18234 1957 40 EP CP NOT_NAMED 1957-08-15 03:00:00 TS 38.6073 -170.528 main 1593 1559 P________PP___ EP021957 38.6000 -170.523 TS 55 0 38.6000 -170.523 TC 55 38.6366 -170.548 4 6 14
1957218N18234 1957 40 EP CP NOT_NAMED 1957-08-15 06:00:00 TS 38.9135 -170.404 50 hurdat_epa main 1559 1525 O________OP___ hurdat_epa EP021957 38.9000 -170.400 TS 50 0 38.9000 -170.400 TC 50 38.9676 -170.420 4 7 19
1957218N18234 1957 40 EP CP NOT_NAMED 1957-08-15 09:00:00 TS 39.2370 -170.246 main 1525 1491 P________PP___ EP021957 39.2300 -170.243 TS 47 0 39.2300 -170.243 TC 47 39.2648 -170.257 4 6 22
1957218N18234 1957 40 EP CP NOT_NAMED 1957-08-15 12:00:00 TS 39.5000 -170.100 45 hurdat_epa main 1491 1479 O________OO___ hurdat_epa EP021957 39.5000 -170.100 TS 45 0 39.5000 -170.100 TC 45 39.5000 -170.100 4 4 23
1957218N18234 1957 40 EP CP NOT_NAMED 1957-08-15 15:00:00 TS 39.6407 -170.030 main 1479 1468 P________PP___ EP021957 39.6375 -170.042 TS 45 0 39.6375 -170.042 TC 45 39.6536 -169.982 4 2 24
1957218N18234 1957 40 EP CP NOT_NAMED 1957-08-15 18:00:00 TS 39.7080 -169.980 45 hurdat_epa main 1468 1457 O________OP___ hurdat_epa EP021957 39.7000 -170.000 TS 45 0 39.7000 -170.000 TC 45 39.7398 -169.901 4 2 41
1957218N18234 1957 40 EP CP NOT_NAMED 1957-08-15 21:00:00 TS 39.7563 -169.901 main 1457 1456 P________PP___ EP021957 39.7500 -169.915 TS 45 0 39.7500 -169.915 TC 45 39.7811 -169.844 4 2 56
1957218N18234 1957 40 EP CP NOT_NAMED 1957-08-16 00:00:00 TS 39.8000 -169.800 45 hurdat_epa main 1456 O________OO___ hurdat_epa EP021957 39.8000 -169.800 TS 45 0 39.8000 -169.800 TC 45 39.8000 -169.800 4 2 60

IBTrACS Databaseについて

本データベースは、米国NOAAが公開する1842年以降の世界の熱帯低気圧のベストトラックデータアーカイブInternational Best Track Archive for Climate Stewardship (IBTrACS)を、ウェブで閲覧しやすい形式に変換したものです。

最終更新日:2021-12-03